Strona główna
METAR-TAF:

METAR-TAF

Lotnisko :

Port lotniczy Teheran-Mehrabad

Teheran, Iran

Szerokość geograficzna: 35-41N, Długość geograficzna: 051-21E, wysokość: 1204 m

Aktualna obserwacja pogody

Raport powstał 34 minut temu, godzina 08:30 UTC
Wiatr 6 kt od południe
Temperatura 3°C
Wilgotność 30%
Ciśnienie 1030 hPa
Widzialność 10 km lub więcej
Brak chmur poniżej 1500 m i brak chmur cumulonimbus

METAR: OIII 230830Z 17006KT CAVOK 03/M13 Q1030 A3043

czas: 12:34 (09:04 UTC)

Prognoza

Raport powstał 3 godziny i 34 minut temu, godzina 05:30 UTC
Prognoza ważna od 23 godzina 06 UTC do 24 godzina 12 UTC
Wiatr 6 kt od wschód
Widzialność: 8000 m
Stopniowe zmiany
od 23 godzina 18 UTC do 23 godzina 20 UTC
Wiatr 8 kt od północno-północny zachód
Przejściowo
od 23 godzina 21 UTC do 23 godzina 24 UTC
Mało chmury na wysokości 4000 ft
Przerywane chmury na wysokości 10000 ft

TAF: OIII 230530Z 2306/2412 10006KT 8000 NSC BECMG 2318/2320 33008KT TEMPO 2321/2324 FEW040 BKN100

Obserwacja i prognoza pogody dla ponad 4000 lotnisk (raport METAR i TAF).

Dostępne stacje oznaczono żółtymi i czerwonymi punktami na mapie.

Najedź kursorem aby zobaczyć nazwę stacji.

Kliknij aby zobaczyć obserwacje i prognozy pogody.

Aby zmienić mapę: kliknij na zielony przycisk z czarnym krzyżykiem, aby powiększyć; na zielony przycisk z myślnikiem, aby pomniejszyć; na zielone strzałki, aby przejść do map sąsiednich.


METAR-TAF: